DLH64C LEBB-EDDF
Flight info
| Callsign | DLH64C |
|---|---|
| Flight time | N/A |
| Altitude | 36000 |
| Route | SSN L176 LUSEM DCT LULUT DCT ADABI DCT BOKNO DCT DIBES DCT VIQAQ DCT TSU UN858 OQQAL DCT RANUX/N0423F350 DCT VALEK DCT LUTAX UM163 DIK T856 NIVNU T847 IMCOM IMCOM1A/25R |
| Aircraft | A21N/M-SDE2E3FGIJ1LORWXYZ/HB1 |
Departure
| Time | N/A |
|---|---|
| Airport | Bilbao Airport (LEBB) |
Arrival
| Time | 2026-05-04 18:23 |
|---|---|
| Airport | Frankfurt Main Airport (EDDF) |
| Time | Latitude | Longitude | Altitude | Speed | Heading |
|---|---|---|---|---|---|
| 2026-05-04 18:22 | 50.04454 | 8.54487 | 351 ft | 21 kts | 111° |
| 2026-05-04 18:23 | 50.04394 | 8.54676 | 349 ft | 25 kts | 132° |
| 2026-05-04 18:23 | 50.04268 | 8.54802 | 348 ft | 18 kts | 160° |
| 2026-05-04 18:23 | 50.04183 | 8.54850 | 348 ft | 9 kts | 160° |
| 2026-05-04 18:23 | 50.04119 | 8.54886 | 347 ft | 5 kts | 160° |
| 2026-05-04 18:24 | 50.04100 | 8.54896 | 347 ft | 0 kts | 160° |
| 2026-05-04 18:24 | 50.04093 | 8.54900 | 347 ft | 0 kts | 160° |
| 2026-05-04 18:25 | 50.04092 | 8.54901 | 346 ft | 5 kts | 160° |
| 2026-05-04 18:26 | 50.04022 | 8.54940 | 345 ft | 13 kts | 160° |
| 2026-05-04 18:26 | 50.03937 | 8.54987 | 344 ft | 15 kts | 160° |
| 2026-05-04 18:26 | 50.03863 | 8.55072 | 344 ft | 14 kts | 106° |
| 2026-05-04 18:26 | 50.03870 | 8.55193 | 346 ft | 12 kts | 70° |
| 2026-05-04 18:27 | 50.03900 | 8.55330 | 347 ft | 13 kts | 71° |
| 2026-05-04 18:27 | 50.03933 | 8.55466 | 348 ft | 13 kts | 71° |
| 2026-05-04 18:27 | 50.03968 | 8.55614 | 348 ft | 13 kts | 69° |
| 2026-05-04 18:27 | 50.04007 | 8.55774 | 347 ft | 14 kts | 70° |
| 2026-05-04 18:28 | 50.04044 | 8.55938 | 350 ft | 13 kts | 70° |
| 2026-05-04 18:28 | 50.04070 | 8.56044 | 351 ft | 13 kts | 69° |
| 2026-05-04 18:28 | 50.04099 | 8.56160 | 353 ft | 15 kts | 69° |
| 2026-05-04 18:28 | 50.04134 | 8.56297 | 355 ft | 18 kts | 68° |
| 2026-05-04 18:29 | 50.04176 | 8.56458 | 356 ft | 20 kts | 68° |
| 2026-05-04 18:29 | 50.04221 | 8.56646 | 358 ft | 23 kts | 73° |
| 2026-05-04 18:29 | 50.04259 | 8.56779 | 362 ft | 15 kts | 48° |
| 2026-05-04 18:29 | 50.04338 | 8.56819 | 366 ft | 16 kts | 14° |
| 2026-05-04 18:30 | 50.04520 | 8.56879 | 370 ft | 13 kts | 14° |
| 2026-05-04 18:30 | 50.04574 | 8.56885 | 371 ft | 9 kts | 330° |
| 2026-05-04 18:30 | 50.04589 | 8.56844 | 371 ft | 6 kts | 288° |
| 2026-05-04 18:31 | 50.04601 | 8.56795 | 370 ft | 0 kts | 294° |
| 2026-05-04 18:31 | 50.04602 | 8.56795 | 370 ft | 0 kts | 294° |